Terminal Aerodrome Forecast
Issued by NWS

Home | Current Version | Previous Version | Text Only | Print | Product List | Glossary Off
Versions: 1 2 3 4 5 6 7 8 9 10 11 12 13 14 15 16 17 18 19 20 21

000
FTUS43 KGRB 281006 AAA
TAFRHI
TAF AMD
KRHI 281006Z 2810/2906 28005KT 6SM BR SCT004 BKN012
      TEMPO 2810/2813 1/2SM FG VV002
     FM281500 29004KT 6SM BR SCT005 BKN015
     FM281700 24005KT P6SM SCT025
     FM282300 VRB03KT P6SM SKC=

USA.gov is the U.S. government's official web portal to all federal, state and local government web resources and services.